Time;durP1;ratioP1;P1;durP2;ratioP2;P2;SDS_P1;SDS_P2;PMS_P1;PMS_P2;Temp;Humidity;BMP_temperature;BMP_pressure;BME280_temperature;BME280_humidity;BME280_pressure;Samples;Min_cycle;Max_cycle;Signal;HPM_P1;HPM_P2
2023/11/26 00:02:07;;;;;;;16.13;5.80;;;4.20;99.90;;;;;;5042848;28;20033;-82
2023/11/26 00:04:33;;;;;;;15.50;4.97;;;4.20;99.90;;;;;;5024713;28;20017;-82
2023/11/26 00:06:59;;;;;;;15.80;5.37;;;4.20;99.90;;;;;;5025300;28;20040;-82
2023/11/26 00:09:25;;;;;;;13.93;5.43;;;4.10;99.90;;;;;;5023783;28;20088;-82
2023/11/26 00:11:51;;;;;;;14.33;5.00;;;4.10;99.90;;;;;;5025113;28;20034;-82
2023/11/26 00:14:17;;;;;;;15.20;5.30;;;4.00;99.90;;;;;;5024145;28;20099;-83
2023/11/26 00:16:44;;;;;;;17.27;5.67;;;4.00;99.90;;;;;;5043175;28;20045;-82
2023/11/26 00:19:10;;;;;;;12.43;5.10;;;4.00;99.90;;;;;;5024405;28;20018;-82
2023/11/26 00:21:36;;;;;;;12.73;4.87;;;4.00;99.90;;;;;;5024604;28;20024;-82
2023/11/26 00:24:02;;;;;;;14.00;5.20;;;3.90;99.90;;;;;;5042701;28;20036;-81
2023/11/26 00:26:28;;;;;;;12.93;5.27;;;3.90;99.90;;;;;;5041703;28;20025;-82
2023/11/26 00:28:54;;;;;;;18.33;6.27;;;4.00;99.90;;;;;;5042960;28;20029;-82
2023/11/26 00:31:22;;;;;;;14.97;4.77;;;3.90;99.90;;;;;;5041265;28;20021;-83
2023/11/26 00:33:48;;;;;;;17.67;4.87;;;3.80;99.90;;;;;;5024853;28;20025;-83
2023/11/26 00:36:15;;;;;;;11.93;4.67;;;3.80;99.90;;;;;;5042356;28;20097;-83
2023/11/26 00:38:42;;;;;;;11.63;5.17;;;3.70;99.90;;;;;;5041951;28;20049;-82
2023/11/26 00:41:07;;;;;;;12.73;5.40;;;3.70;99.90;;;;;;5023940;28;20034;-82
2023/11/26 00:43:33;;;;;;;11.37;5.10;;;3.70;99.90;;;;;;5041199;28;20035;-83
2023/11/26 00:46:00;;;;;;;15.87;5.33;;;3.70;99.90;;;;;;5023848;28;20057;-83
2023/11/26 00:48:27;;;;;;;16.53;5.83;;;3.70;99.90;;;;;;5023310;28;20041;-82
2023/11/26 00:50:53;;;;;;;16.60;4.63;;;3.70;99.90;;;;;;5008497;28;20507;-83
2023/11/26 00:53:19;;;;;;;15.13;5.30;;;3.60;99.90;;;;;;5023569;28;20099;-83
2023/11/26 00:55:45;;;;;;;12.70;5.60;;;3.60;99.90;;;;;;5024038;28;20083;-83
2023/11/26 00:58:12;;;;;;;15.90;5.73;;;3.60;99.90;;;;;;5041838;28;20025;-82
2023/11/26 01:00:38;;;;;;;14.43;5.27;;;3.50;99.90;;;;;;5040632;28;20101;-83
2023/11/26 01:03:05;;;;;;;19.50;5.50;;;3.50;99.90;;;;;;5024258;28;20506;-83
2023/11/26 01:05:31;;;;;;;19.30;6.00;;;3.50;99.90;;;;;;5022551;28;20085;-83
2023/11/26 01:07:57;;;;;;;11.97;5.87;;;3.50;99.90;;;;;;5041691;28;20075;-83
2023/11/26 01:10:22;;;;;;;13.40;5.77;;;3.40;99.90;;;;;;5040628;28;20025;-84
2023/11/26 01:12:49;;;;;;;15.53;5.30;;;3.40;99.90;;;;;;5023810;28;20081;-84
2023/11/26 01:15:15;;;;;;;17.80;6.03;;;3.40;99.90;;;;;;5023571;28;20029;-84
2023/11/26 01:17:42;;;;;;;18.50;5.80;;;3.40;99.90;;;;;;5022907;28;20035;-83
2023/11/26 01:20:12;;;;;;;16.43;6.30;;;3.40;99.90;;;;;;5024011;28;20033;-83
2023/11/26 01:22:38;;;;;;;19.57;6.17;;;3.40;99.90;;;;;;5040773;28;20116;-83
2023/11/26 01:25:05;;;;;;;15.77;6.03;;;3.40;99.90;;;;;;5041728;28;20036;-84
2023/11/26 01:27:31;;;;;;;11.53;5.40;;;3.40;99.90;;;;;;5040862;28;20049;-83
2023/11/26 01:29:57;;;;;;;17.40;5.90;;;3.30;99.90;;;;;;5023084;28;20053;-84
2023/11/26 01:32:23;;;;;;;15.10;5.27;;;3.30;99.90;;;;;;5023486;28;20108;-82
2023/11/26 01:34:49;;;;;;;16.00;5.20;;;3.30;99.90;;;;;;5022846;28;20026;-82
2023/11/26 01:37:15;;;;;;;13.87;5.27;;;3.30;99.90;;;;;;5041455;28;20032;-82
2023/11/26 01:39:40;;;;;;;16.30;6.17;;;3.30;99.90;;;;;;5022584;28;20021;-82
2023/11/26 01:42:06;;;;;;;14.70;5.73;;;3.30;99.90;;;;;;5041108;28;20075;-82
2023/11/26 01:44:32;;;;;;;13.40;5.50;;;3.30;99.90;;;;;;5022561;28;20032;-82
2023/11/26 01:47:08;;;;;;;14.40;5.23;;;3.20;99.90;;;;;;5041352;28;20069;-82
2023/11/26 01:49:36;;;;;;;15.77;5.47;;;3.20;99.90;;;;;;5041116;28;20119;-82
2023/11/26 01:52:05;;;;;;;16.23;5.60;;;3.20;99.90;;;;;;5040155;28;20077;-82
2023/11/26 01:54:34;;;;;;;14.97;5.03;;;3.20;99.90;;;;;;5023721;28;20467;-83
2023/11/26 01:57:02;;;;;;;18.87;5.23;;;3.20;99.90;;;;;;5021836;28;20021;-82
2023/11/26 01:59:29;;;;;;;14.17;5.37;;;3.20;99.90;;;;;;5022560;28;20080;-83
2023/11/26 02:01:55;;;;;;;14.70;4.40;;;3.20;99.90;;;;;;5022548;28;20083;-83
2023/11/26 02:04:21;;;;;;;15.73;4.20;;;3.20;99.90;;;;;;5022743;28;20434;-83
2023/11/26 02:06:53;;;;;;;13.87;4.23;;;3.10;99.90;;;;;;5040973;28;20094;-83
2023/11/26 02:09:19;;;;;;;11.40;4.33;;;3.10;99.90;;;;;;5022365;28;20037;-84
2023/11/26 02:11:46;;;;;;;13.20;3.83;;;3.10;99.90;;;;;;5040874;28;20029;-84
2023/11/26 02:14:12;;;;;;;16.73;3.93;;;3.10;99.90;;;;;;5039652;28;20030;-83
2023/11/26 02:16:38;;;;;;;13.07;4.50;;;3.00;99.90;;;;;;5006153;28;20068;-83
2023/11/26 02:19:31;;;;;;;17.13;4.47;;;3.00;99.90;;;;;;5040123;28;20029;-83
2023/11/26 02:21:57;;;;;;;19.23;4.43;;;3.00;99.90;;;;;;5023399;28;20034;-83
2023/11/26 02:24:29;;;;;;;15.63;3.87;;;3.00;99.90;;;;;;5040854;28;20049;-82
2023/11/26 02:26:55;;;;;;;12.10;3.90;;;3.00;99.90;;;;;;5039398;28;20052;-83
2023/11/26 02:29:22;;;;;;;14.07;4.40;;;3.00;99.90;;;;;;5022556;28;20045;-82
2023/11/26 02:31:48;;;;;;;11.57;3.40;;;2.90;99.90;;;;;;5039981;28;20041;-82
2023/11/26 02:34:14;;;;;;;15.27;3.87;;;2.90;99.90;;;;;;5040795;28;20030;-82
2023/11/26 02:36:39;;;;;;;16.60;4.03;;;3.00;99.90;;;;;;5041048;28;20029;-82
2023/11/26 02:39:07;;;;;;;18.63;4.60;;;2.90;99.90;;;;;;5022073;28;20029;-82
2023/11/26 02:41:32;;;;;;;12.13;4.10;;;2.80;99.90;;;;;;5040410;28;20108;-82
2023/11/26 02:43:58;;;;;;;11.83;3.63;;;2.80;99.90;;;;;;5021351;28;20083;-82
2023/11/26 02:46:24;;;;;;;12.87;3.53;;;2.80;99.90;;;;;;5022973;28;20026;-82
2023/11/26 02:48:50;;;;;;;10.77;3.50;;;2.80;99.90;;;;;;5039739;28;20429;-82
2023/11/26 02:51:15;;;;;;;15.87;4.07;;;2.80;99.90;;;;;;5006633;28;20061;-82
2023/11/26 02:53:41;;;;;;;13.77;4.03;;;2.80;99.90;;;;;;5040460;28;20026;-82
2023/11/26 02:56:07;;;;;;;16.10;3.87;;;2.80;99.90;;;;;;5021790;28;20022;-82
2023/11/26 02:58:33;;;;;;;10.93;4.00;;;2.80;99.90;;;;;;5040611;28;20064;-82
2023/11/26 03:00:58;;;;;;;8.83;4.13;;;2.80;99.90;;;;;;5039337;28;20038;-84
2023/11/26 03:03:24;;;;;;;10.93;3.63;;;2.80;99.90;;;;;;5040669;28;20026;-84
2023/11/26 03:05:54;;;;;;;12.90;4.33;;;3.00;99.90;;;;;;5039326;28;20455;-82
2023/11/26 03:08:32;;;;;;;11.07;3.80;;;2.80;99.90;;;;;;5040436;28;20044;-84
2023/11/26 03:13:53;;;;;;;11.63;3.57;;;2.80;99.90;;;;;;4955164;28;20055;-85
2023/11/26 03:16:18;;;;;;;14.50;3.37;;;2.80;99.90;;;;;;5026115;28;20083;-84
2023/11/26 03:18:44;;;;;;;11.80;4.03;;;2.80;99.90;;;;;;5024926;28;20025;-84
2023/11/26 03:21:15;;;;;;;9.27;3.60;;;2.80;99.90;;;;;;5043760;28;20052;-83
2023/11/26 03:23:41;;;;;;;11.70;3.90;;;2.80;99.90;;;;;;5043905;28;20086;-83
2023/11/26 03:26:07;;;;;;;11.60;4.00;;;2.80;99.90;;;;;;5024931;28;20486;-84
2023/11/26 03:28:32;;;;;;;11.40;3.60;;;2.80;99.90;;;;;;5043742;28;20113;-84
2023/11/26 03:30:58;;;;;;;11.10;3.70;;;2.70;99.90;;;;;;5024516;28;20052;-84
2023/11/26 03:33:26;;;;;;;13.93;3.90;;;2.80;99.90;;;;;;5025821;28;20017;-84
2023/11/26 03:35:52;;;;;;;12.93;4.60;;;2.80;99.90;;;;;;5024578;28;20031;-84
2023/11/26 03:38:18;;;;;;;11.20;3.77;;;2.80;99.90;;;;;;5025862;28;20049;-83
2023/11/26 03:40:44;;;;;;;12.30;3.93;;;2.80;99.90;;;;;;5043104;28;20471;-83
2023/11/26 03:43:11;;;;;;;11.10;3.90;;;2.70;99.90;;;;;;5024584;28;20033;-84
2023/11/26 03:45:36;;;;;;;8.77;3.40;;;2.70;99.90;;;;;;5025698;28;20468;-83
2023/11/26 03:48:03;;;;;;;14.27;3.63;;;2.70;99.90;;;;;;5024366;28;20071;-83
2023/11/26 03:50:29;;;;;;;13.30;3.30;;;2.70;99.90;;;;;;5043492;28;20017;-82
2023/11/26 03:52:55;;;;;;;13.57;3.60;;;2.70;99.90;;;;;;5042497;28;20612;-82
2023/11/26 03:55:24;;;;;;;8.30;3.23;;;2.70;99.90;;;;;;5025451;28;20032;-82
2023/11/26 03:57:49;;;;;;;9.97;3.30;;;2.60;99.90;;;;;;5025248;28;20025;-82
2023/11/26 04:00:16;;;;;;;9.27;3.40;;;2.60;99.90;;;;;;5042745;28;20111;-83
2023/11/26 04:02:42;;;;;;;12.50;3.60;;;2.60;99.90;;;;;;5042947;28;20021;-83
2023/11/26 04:05:08;;;;;;;15.40;3.30;;;2.60;99.90;;;;;;5042025;28;20017;-82
2023/11/26 04:07:34;;;;;;;11.73;3.40;;;2.60;99.90;;;;;;5043202;28;20096;-83
2023/11/26 04:10:00;;;;;;;8.53;3.03;;;2.60;99.90;;;;;;5023880;28;20029;-82
2023/11/26 04:12:26;;;;;;;9.47;3.63;;;2.60;99.90;;;;;;5025270;28;20089;-83
2023/11/26 04:15:02;;;;;;;7.97;2.67;;;2.60;99.90;;;;;;5024820;28;20032;-82
2023/11/26 04:17:28;;;;;;;9.83;3.03;;;2.50;99.90;;;;;;5024210;28;20036;-83
2023/11/26 04:19:59;;;;;;;16.73;3.87;;;2.50;99.90;;;;;;5042855;28;20053;-82
2023/11/26 04:22:25;;;;;;;9.43;3.07;;;2.50;99.90;;;;;;5023507;28;20018;-82
2023/11/26 04:24:51;;;;;;;8.90;3.43;;;2.50;99.90;;;;;;5024762;28;20044;-83
2023/11/26 04:27:21;;;;;;;9.00;3.67;;;2.60;99.90;;;;;;5042150;28;20505;-82
2023/11/26 04:29:47;;;;;;;12.30;3.60;;;2.60;99.90;;;;;;5024617;28;20038;-82
2023/11/26 04:32:17;;;;;;;14.03;3.43;;;2.60;99.90;;;;;;5042281;28;20052;-83
2023/11/26 04:34:42;;;;;;;13.43;4.23;;;2.50;99.90;;;;;;5042013;28;20025;-83
2023/11/26 04:37:09;;;;;;;15.13;3.77;;;2.60;99.90;;;;;;5024896;28;20087;-83
2023/11/26 04:39:35;;;;;;;12.17;2.93;;;2.60;99.90;;;;;;5023389;28;20554;-83
2023/11/26 04:42:02;;;;;;;12.10;3.57;;;2.60;99.90;;;;;;5041921;28;20089;-83
2023/11/26 04:44:28;;;;;;;13.43;3.23;;;2.60;99.90;;;;;;5023710;28;20048;-83
2023/11/26 04:46:53;;;;;;;12.77;3.23;;;2.60;99.90;;;;;;5042283;28;20483;-82
2023/11/26 04:49:19;;;;;;;11.53;3.37;;;2.60;99.90;;;;;;5008102;28;20060;-82
2023/11/26 04:51:46;;;;;;;15.47;3.73;;;2.60;99.90;;;;;;5023869;28;20029;-82
2023/11/26 04:54:12;;;;;;;12.00;2.90;;;2.60;99.90;;;;;;5023956;28;20032;-82
2023/11/26 04:56:41;;;;;;;10.90;3.63;;;2.60;99.90;;;;;;5023244;28;20022;-82
2023/11/26 04:59:07;;;;;;;9.57;3.03;;;2.60;99.90;;;;;;5023979;28;20029;-82
2023/11/26 05:01:35;;;;;;;8.00;2.97;;;2.60;99.90;;;;;;5041320;28;20045;-83
2023/11/26 05:04:01;;;;;;;7.30;2.83;;;2.60;99.90;;;;;;5024388;28;20017;-83
2023/11/26 05:06:27;;;;;;;9.50;2.73;;;2.70;99.90;;;;;;5024238;28;20058;-83
2023/11/26 05:08:53;;;;;;;8.83;2.80;;;2.60;99.90;;;;;;5022960;28;20097;-83
2023/11/26 05:11:18;;;;;;;10.40;2.73;;;2.70;99.90;;;;;;5024409;28;20048;-82
2023/11/26 05:13:45;;;;;;;10.67;3.00;;;2.60;99.90;;;;;;5022858;28;20036;-82
2023/11/26 05:16:11;;;;;;;8.93;2.97;;;2.60;99.90;;;;;;5041938;28;20036;-83
2023/11/26 05:18:37;;;;;;;10.50;3.23;;;2.70;99.90;;;;;;5041150;28;20018;-82
2023/11/26 05:21:02;;;;;;;8.43;2.60;;;2.70;99.90;;;;;;5041487;28;20049;-82
2023/11/26 05:23:28;;;;;;;8.20;2.70;;;2.70;99.90;;;;;;5023774;28;20029;-82
2023/11/26 05:25:54;;;;;;;6.97;2.53;;;2.70;99.90;;;;;;5023369;28;20021;-82
2023/11/26 05:28:19;;;;;;;13.70;3.43;;;2.70;99.90;;;;;;5041190;28;20033;-82
2023/11/26 05:30:45;;;;;;;9.60;2.73;;;2.70;99.90;;;;;;5022856;28;20013;-82
2023/11/26 05:33:11;;;;;;;12.87;2.67;;;2.70;99.90;;;;;;5022983;28;20032;-82
2023/11/26 05:35:37;;;;;;;6.90;2.50;;;2.70;99.90;;;;;;5040717;28;20014;-82
2023/11/26 05:38:03;;;;;;;9.83;2.77;;;2.70;99.90;;;;;;5023416;28;20034;-82
2023/11/26 05:40:29;;;;;;;8.67;2.60;;;2.70;99.90;;;;;;5041089;28;20032;-82
2023/11/26 05:42:56;;;;;;;12.13;3.30;;;2.70;99.90;;;;;;5040703;28;20373;-83
2023/11/26 05:45:22;;;;;;;7.47;2.63;;;2.70;99.90;;;;;;5023490;28;20029;-84
2023/11/26 05:47:47;;;;;;;14.83;2.77;;;2.70;99.90;;;;;;5040354;28;20041;-83
2023/11/26 05:50:15;;;;;;;8.40;2.13;;;2.90;99.90;;;;;;5023217;28;20029;-82
2023/11/26 05:52:41;;;;;;;8.03;2.50;;;2.80;99.90;;;;;;5022323;28;20036;-83
2023/11/26 05:55:07;;;;;;;10.30;2.43;;;2.80;99.90;;;;;;5041295;28;20026;-82
2023/11/26 05:57:32;;;;;;;10.03;2.13;;;2.90;99.90;;;;;;5040840;28;20089;-82
2023/11/26 05:59:59;;;;;;;8.33;2.13;;;2.90;99.90;;;;;;5014126;28;20082;-82
2023/11/26 06:02:25;;;;;;;9.37;2.20;;;3.00;99.90;;;;;;5000493;28;20026;-82
2023/11/26 06:04:51;;;;;;;9.73;2.03;;;3.00;99.90;;;;;;4999143;28;20498;-82
2023/11/26 06:07:17;;;;;;;9.00;2.40;;;3.10;99.90;;;;;;5000325;28;20046;-83
2023/11/26 06:09:43;;;;;;;10.83;2.30;;;3.10;99.90;;;;;;4998852;28;20094;-83
2023/11/26 06:12:09;;;;;;;9.77;2.23;;;3.20;99.90;;;;;;5000177;28;20041;-82
2023/11/26 06:14:35;;;;;;;10.10;2.20;;;3.20;99.90;;;;;;4999751;28;20117;-83
2023/11/26 06:17:01;;;;;;;9.83;2.97;;;3.20;99.90;;;;;;5000158;28;20023;-82
2023/11/26 06:19:27;;;;;;;5.43;1.93;;;3.20;99.90;;;;;;4999836;28;20030;-83
2023/11/26 06:21:53;;;;;;;8.43;2.60;;;3.30;99.90;;;;;;5000847;28;20022;-83
2023/11/26 06:24:19;;;;;;;6.87;2.20;;;3.30;99.90;;;;;;4999931;28;20031;-83
2023/11/26 06:26:44;;;;;;;9.70;2.17;;;3.30;99.90;;;;;;4998890;28;20026;-83
2023/11/26 06:29:11;;;;;;;6.83;2.10;;;3.30;99.90;;;;;;4983629;28;20050;-83
2023/11/26 06:31:37;;;;;;;8.80;2.43;;;3.30;99.90;;;;;;5000835;28;20022;-82
2023/11/26 06:34:02;;;;;;;8.83;2.30;;;3.30;99.90;;;;;;4999838;28;20053;-81
2023/11/26 06:36:28;;;;;;;9.43;2.10;;;3.40;99.90;;;;;;5000178;28;20018;-82
2023/11/26 06:38:56;;;;;;;9.67;2.33;;;3.30;99.90;;;;;;5000535;28;20025;-83
2023/11/26 06:41:28;;;;;;;9.47;2.10;;;3.40;99.90;;;;;;4999212;28;20046;-82
2023/11/26 06:44:00;;;;;;;8.47;2.10;;;3.50;99.90;;;;;;5001080;28;20026;-82
2023/11/26 06:46:27;;;;;;;8.30;2.10;;;3.40;99.90;;;;;;5003891;28;20062;-82
2023/11/26 06:48:54;;;;;;;8.80;2.37;;;3.50;99.90;;;;;;5002971;28;20041;-84
2023/11/26 06:51:20;;;;;;;7.00;1.83;;;3.60;99.90;;;;;;5004800;28;20034;-85
2023/11/26 06:53:47;;;;;;;10.33;2.07;;;3.50;99.90;;;;;;5005113;28;20026;-84
2023/11/26 06:56:14;;;;;;;10.73;1.90;;;3.60;99.90;;;;;;5004124;28;20034;-84
2023/11/26 06:58:40;;;;;;;5.27;1.63;;;3.60;99.90;;;;;;5002614;28;20030;-85
2023/11/26 07:01:06;;;;;;;11.60;1.60;;;3.60;99.90;;;;;;5018587;28;20046;-85
2023/11/26 07:03:33;;;;;;;6.83;1.60;;;3.60;99.90;;;;;;5037356;28;20057;-85
2023/11/26 07:06:01;;;;;;;6.57;1.17;;;3.60;99.90;;;;;;5025653;28;20030;-85
2023/11/26 07:08:27;;;;;;;7.83;1.77;;;3.70;99.90;;;;;;5031731;28;20104;-85
2023/11/26 07:10:53;;;;;;;4.23;1.50;;;3.70;99.90;;;;;;5044318;28;20030;-84
2023/11/26 07:13:19;;;;;;;6.40;1.27;;;3.70;99.90;;;;;;5043342;28;20108;-84
2023/11/26 07:15:45;;;;;;;5.03;1.30;;;3.70;99.90;;;;;;5025939;28;20017;-85
2023/11/26 07:18:12;;;;;;;6.03;1.50;;;3.80;99.90;;;;;;5024903;28;20033;-85
2023/11/26 07:20:38;;;;;;;7.37;1.33;;;3.80;99.90;;;;;;5044501;28;20014;-85
2023/11/26 07:23:04;;;;;;;5.47;1.70;;;3.80;99.90;;;;;;5025632;28;20024;-85
2023/11/26 07:25:30;;;;;;;7.57;1.50;;;3.90;99.90;;;;;;5043628;28;20041;-85
2023/11/26 07:27:57;;;;;;;5.13;1.23;;;3.90;99.90;;;;;;5025511;28;20029;-84
2023/11/26 07:30:23;;;;;;;4.63;1.33;;;3.90;99.90;;;;;;5025071;28;20025;-85
2023/11/26 07:32:50;;;;;;;4.67;1.40;;;3.90;99.90;;;;;;5025840;28;20025;-85
2023/11/26 07:35:16;;;;;;;9.67;1.67;;;3.90;99.90;;;;;;5024838;28;20036;-86
2023/11/26 07:37:42;;;;;;;7.47;1.63;;;4.00;99.90;;;;;;5026289;28;20018;-84
2023/11/26 07:40:13;;;;;;;5.37;1.30;;;4.00;99.90;;;;;;5025160;28;20533;-83
2023/11/26 07:42:40;;;;;;;7.27;1.40;;;4.00;99.90;;;;;;5043510;28;20025;-84
2023/11/26 07:45:09;;;;;;;9.87;2.03;;;4.00;99.90;;;;;;5025838;28;20022;-84
2023/11/26 07:47:35;;;;;;;7.13;1.60;;;4.10;99.90;;;;;;5042449;28;20388;-84
2023/11/26 07:50:00;;;;;;;9.40;1.77;;;4.10;99.90;;;;;;5025330;28;20025;-82
2023/11/26 07:52:26;;;;;;;4.27;1.20;;;4.10;99.90;;;;;;5024976;28;20021;-85
2023/11/26 07:54:53;;;;;;;8.67;1.13;;;4.20;99.90;;;;;;5025595;28;20044;-85
2023/11/26 07:57:18;;;;;;;6.20;1.60;;;4.20;99.90;;;;;;5042366;28;20060;-85
2023/11/26 07:59:44;;;;;;;6.73;1.20;;;4.20;99.90;;;;;;5044296;28;20048;-92
2023/11/26 08:02:11;;;;;;;7.60;2.47;;;4.30;99.90;;;;;;5027708;28;20080;-86
2023/11/26 08:04:40;;;;;;;5.57;0.90;;;4.30;99.90;;;;;;5039221;28;20070;-87
2023/11/26 08:07:05;;;;;;;4.20;1.27;;;4.30;99.90;;;;;;5042605;28;20121;-84
2023/11/26 08:09:32;;;;;;;7.20;1.20;;;4.40;99.90;;;;;;5023911;28;20022;-84
2023/11/26 08:12:00;;;;;;;9.60;1.47;;;4.40;99.90;;;;;;5022540;28;20058;-84
2023/11/26 08:14:27;;;;;;;9.30;1.33;;;4.40;99.90;;;;;;5039047;28;20013;-84
2023/11/26 08:16:56;;;;;;;4.90;1.00;;;4.50;99.90;;;;;;5042037;28;20067;-85
2023/11/26 08:19:23;;;;;;;13.13;1.43;;;4.50;99.90;;;;;;5042445;28;20021;-84
2023/11/26 08:21:49;;;;;;;5.03;1.20;;;4.60;99.90;;;;;;5031335;28;20035;-85
2023/11/26 08:24:18;;;;;;;6.13;1.17;;;4.60;99.90;;;;;;5041520;28;20013;-84
2023/11/26 08:26:46;;;;;;;9.83;1.90;;;4.70;99.90;;;;;;5032427;28;20052;-84
2023/11/26 08:29:19;;;;;;;6.60;1.40;;;4.70;99.90;;;;;;5042732;28;20056;-85
2023/11/26 08:31:50;;;;;;;5.93;1.33;;;4.80;99.90;;;;;;5041460;28;20028;-84
2023/11/26 08:34:16;;;;;;;5.97;1.50;;;4.80;99.90;;;;;;5024433;28;20042;-85
2023/11/26 08:36:46;;;;;;;13.00;2.00;;;4.80;99.90;;;;;;5042562;28;20088;-84
2023/11/26 08:39:19;;;;;;;5.20;1.23;;;4.90;99.90;;;;;;5023736;28;20152;-86
2023/11/26 08:41:50;;;;;;;7.70;1.83;;;5.00;99.90;;;;;;5041569;28;20025;-84
2023/11/26 08:44:15;;;;;;;5.87;1.60;;;5.00;99.90;;;;;;5023242;28;20096;-84
2023/11/26 08:46:41;;;;;;;10.13;1.83;;;5.10;99.90;;;;;;5024578;28;20049;-85
2023/11/26 08:49:08;;;;;;;8.33;1.77;;;5.10;99.90;;;;;;5024090;28;20025;-84
2023/11/26 08:51:37;;;;;;;5.40;1.67;;;5.20;99.90;;;;;;5041984;28;20028;-84
2023/11/26 08:54:03;;;;;;;6.47;1.70;;;5.20;99.90;;;;;;5024563;28;20089;-84
2023/11/26 08:56:30;;;;;;;5.33;1.70;;;5.40;99.90;;;;;;5040683;28;20494;-84
2023/11/26 08:58:55;;;;;;;7.53;1.90;;;5.40;99.90;;;;;;5042361;28;20021;-84
2023/11/26 09:01:21;;;;;;;8.80;1.63;;;5.40;99.90;;;;;;5022929;28;20049;-84
2023/11/26 09:03:47;;;;;;;9.20;1.80;;;5.60;99.90;;;;;;5024130;28;20101;-85
2023/11/26 09:06:13;;;;;;;5.63;1.50;;;5.60;99.90;;;;;;5024248;28;20029;-84
2023/11/26 09:08:39;;;;;;;9.67;1.60;;;5.70;99.90;;;;;;5023051;28;20037;-85
2023/11/26 09:11:06;;;;;;;6.70;1.73;;;5.70;99.90;;;;;;5042650;28;20057;-84
2023/11/26 09:13:32;;;;;;;8.20;2.33;;;5.80;99.90;;;;;;5023368;28;20025;-84
2023/11/26 09:15:59;;;;;;;8.87;1.40;;;5.80;99.90;;;;;;5042162;28;20057;-85
2023/11/26 09:18:25;;;;;;;5.07;1.20;;;5.90;99.90;;;;;;5041278;28;20532;-84
2023/11/26 09:20:50;;;;;;;7.10;1.60;;;6.00;99.90;;;;;;5024418;28;20021;-85
2023/11/26 09:23:16;;;;;;;9.03;2.20;;;6.00;99.90;;;;;;5023380;28;20062;-84
2023/11/26 09:25:43;;;;;;;6.87;1.63;;;6.00;99.90;;;;;;5006919;28;20050;-85
2023/11/26 09:28:09;;;;;;;5.87;1.70;;;6.00;99.90;;;;;;5023862;28;20087;-84
2023/11/26 09:30:35;;;;;;;6.70;2.00;;;6.00;99.90;;;;;;5022926;28;20482;-85
2023/11/26 09:33:01;;;;;;;4.63;1.70;;;6.10;99.90;;;;;;5023973;28;20029;-85
2023/11/26 09:35:26;;;;;;;5.33;2.07;;;6.10;99.90;;;;;;5023610;28;20103;-84
2023/11/26 09:37:52;;;;;;;7.30;1.83;;;6.10;99.90;;;;;;5024721;28;20512;-84
2023/11/26 09:40:18;;;;;;;7.27;1.97;;;6.10;99.90;;;;;;5023570;28;20029;-84
2023/11/26 09:42:56;;;;;;;7.43;2.20;;;6.20;99.90;;;;;;5041851;28;20391;-84
2023/11/26 09:45:22;;;;;;;12.17;1.90;;;6.20;99.90;;;;;;5024912;28;20021;-85
2023/11/26 09:47:48;;;;;;;5.37;1.63;;;6.30;99.90;;;;;;5023606;28;20100;-84
2023/11/26 09:50:14;;;;;;;9.27;1.97;;;6.30;99.90;;;;;;5024264;28;20072;-85
2023/11/26 09:52:40;;;;;;;9.27;2.10;;;6.30;99.90;;;;;;5025546;28;20467;-85
2023/11/26 09:55:07;;;;;;;10.43;2.57;;;6.40;99.90;;;;;;5044919;28;20033;-83
2023/11/26 09:57:34;;;;;;;6.97;1.80;;;6.40;99.90;;;;;;5041868;28;20077;-84
2023/11/26 10:00:01;;;;;;;6.87;1.63;;;6.50;99.90;;;;;;5040741;28;20053;-83
2023/11/26 10:02:27;;;;;;;7.63;2.77;;;6.50;99.90;;;;;;5041314;28;20049;-83
2023/11/26 10:04:54;;;;;;;10.23;2.00;;;6.60;99.90;;;;;;5022190;28;20036;-83
2023/11/26 10:07:35;;;;;;;5.43;1.50;;;6.60;99.90;;;;;;5041126;28;20057;-84
2023/11/26 10:10:14;;;;;;;8.87;2.10;;;6.70;99.90;;;;;;5022189;28;20030;-83
2023/11/26 10:12:52;;;;;;;11.83;2.00;;;6.70;99.90;;;;;;5040986;28;20038;-84
2023/11/26 10:15:20;;;;;;;9.17;2.00;;;6.80;99.90;;;;;;5040619;28;20033;-85
2023/11/26 10:18:06;;;;;;;7.77;1.40;;;6.80;99.90;;;;;;5039616;28;20026;-84
2023/11/26 10:20:40;;;;;;;4.50;1.30;;;6.90;99.90;;;;;;5022769;28;20104;-84
2023/11/26 10:23:10;;;;;;;9.45;1.73;;;6.90;99.90;;;;;;5039999;28;20036;-85
2023/11/26 10:25:41;;;;;;;8.53;1.93;;;7.00;99.90;;;;;;5040531;28;20021;-85
2023/11/26 10:28:16;;;;;;;6.97;1.90;;;7.10;99.90;;;;;;5022916;28;20033;-84
2023/11/26 10:30:42;;;;;;;6.47;1.73;;;7.10;99.90;;;;;;5022105;28;20092;-84
2023/11/26 10:33:10;;;;;;;8.33;2.83;;;7.10;99.90;;;;;;5040794;28;20387;-84
2023/11/26 10:35:49;;;;;;;7.37;1.73;;;7.20;99.90;;;;;;5039552;28;20026;-84
2023/11/26 10:38:17;;;;;;;9.63;2.20;;;7.20;99.90;;;;;;5039572;28;20372;-84
2023/11/26 10:40:43;;;;;;;7.33;2.07;;;7.20;99.90;;;;;;5022482;28;20029;-83
2023/11/26 10:43:09;;;;;;;13.13;2.67;;;7.20;99.90;;;;;;5039513;28;20027;-84
2023/11/26 10:45:37;;;;;;;8.17;2.57;;;7.20;99.90;;;;;;5022971;28;20018;-84
2023/11/26 10:48:14;;;;;;;12.63;2.87;;;7.20;99.90;;;;;;5039673;28;20020;-84
2023/11/26 10:51:05;;;;;;;8.23;2.07;;;7.20;99.90;;;;;;5040651;28;20034;-83
2023/11/26 10:53:49;;;;;;;8.23;2.37;;;7.20;99.90;;;;;;5040286;28;20033;-83
2023/11/26 10:56:18;;;;;;;10.48;3.05;;;7.30;99.90;;;;;;5021580;28;20029;-84
2023/11/26 10:58:48;;;;;;;9.33;3.20;;;7.30;99.90;;;;;;5040749;28;20569;-84
2023/11/26 11:01:15;;;;;;;12.40;2.73;;;7.30;99.90;;;;;;5021476;28;20128;-85
2023/11/26 11:03:42;;;;;;;12.63;3.00;;;7.30;99.90;;;;;;5022510;28;20104;-85
2023/11/26 11:06:12;;;;;;;5.53;2.40;;;7.30;99.90;;;;;;5040326;28;20049;-85
2023/11/26 11:08:41;;;;;;;6.93;1.77;;;7.30;99.90;;;;;;5006414;28;20042;-84
2023/11/26 11:11:08;;;;;;;12.33;2.37;;;7.30;99.90;;;;;;5040530;28;20033;-84
2023/11/26 11:13:35;;;;;;;7.67;2.47;;;7.30;99.90;;;;;;5039477;28;20079;-85
2023/11/26 11:16:01;;;;;;;8.17;2.93;;;7.40;99.90;;;;;;5040205;28;20116;-85
2023/11/26 11:18:27;;;;;;;15.00;2.90;;;7.40;99.90;;;;;;5021313;28;20041;-84
2023/11/26 11:21:12;;;;;;;7.67;2.10;;;7.50;99.90;;;;;;5040237;28;20022;-85
2023/11/26 11:23:52;;;;;;;8.03;1.97;;;7.60;99.90;;;;;;5022728;28;20027;-84
2023/11/26 11:26:20;;;;;;;6.40;1.83;;;7.60;99.90;;;;;;5039125;28;20301;-84
2023/11/26 11:28:51;;;;;;;7.57;2.10;;;7.80;99.90;;;;;;5040046;28;20034;-84
2023/11/26 11:31:19;;;;;;;9.90;2.20;;;7.90;99.90;;;;;;5042092;28;20021;-84
2023/11/26 11:33:57;;;;;;;7.23;2.43;;;8.00;99.90;;;;;;5025785;28;20021;-85
2023/11/26 11:36:46;;;;;;;8.00;2.07;;;8.10;99.90;;;;;;5044601;28;20030;-84
2023/11/26 11:39:13;;;;;;;8.20;2.73;;;8.10;99.90;;;;;;5025203;28;20025;-84
2023/11/26 11:41:57;;;;;;;9.03;2.00;;;8.20;99.90;;;;;;5043299;28;20029;-84
2023/11/26 11:44:34;;;;;;;5.50;1.60;;;8.20;99.90;;;;;;5025060;28;20082;-84
2023/11/26 11:47:01;;;;;;;8.23;2.20;;;8.30;99.90;;;;;;5025560;28;20041;-84
2023/11/26 11:49:46;;;;;;;5.67;1.90;;;8.30;99.90;;;;;;5009450;28;20041;-84
2023/11/26 11:52:13;;;;;;;7.80;1.50;;;8.40;99.90;;;;;;5058502;28;20022;-84
2023/11/26 11:54:57;;;;;;;6.10;1.50;;;8.40;99.90;;;;;;5025289;28;20094;-83
2023/11/26 11:57:25;;;;;;;8.57;2.25;;;8.40;99.90;;;;;;5024913;28;20031;-84
2023/11/26 11:59:51;;;;;;;8.53;1.90;;;8.40;99.90;;;;;;5024736;28;20026;-84
2023/11/26 12:02:18;;;;;;;7.70;2.13;;;8.40;99.90;;;;;;5043518;28;20052;-83
2023/11/26 12:04:46;;;;;;;8.90;1.80;;;8.40;99.90;;;;;;5024859;28;20049;-83
2023/11/26 12:07:14;;;;;;;7.50;2.00;;;8.40;99.90;;;;;;5042738;28;20021;-83
2023/11/26 12:09:41;;;;;;;10.80;2.50;;;8.40;99.90;;;;;;5042333;28;20044;-83
2023/11/26 12:12:08;;;;;;;12.57;2.37;;;8.40;99.90;;;;;;5043036;28;20029;-84
2023/11/26 12:14:34;;;;;;;10.27;1.77;;;8.50;99.90;;;;;;5024454;28;20495;-84
2023/11/26 12:17:06;;;;;;;5.73;2.03;;;8.50;99.90;;;;;;5024519;28;20017;-84
2023/11/26 12:19:42;;;;;;;8.03;2.17;;;8.50;99.90;;;;;;5043308;28;20083;-84
2023/11/26 12:22:08;;;;;;;8.57;1.60;;;8.60;99.90;;;;;;5024237;28;20017;-85
2023/11/26 12:24:35;;;;;;;9.73;1.60;;;8.60;99.90;;;;;;5042834;28;20028;-84
2023/11/26 12:27:02;;;;;;;10.37;2.00;;;8.60;99.90;;;;;;5041834;28;20032;-84
2023/11/26 12:29:38;;;;;;;9.23;1.83;;;8.60;99.90;;;;;;5042826;28;20041;-84
2023/11/26 12:32:08;;;;;;;5.73;1.30;;;8.60;99.90;;;;;;5025011;28;20075;-84
2023/11/26 12:34:37;;;;;;;7.93;1.73;;;8.60;99.90;;;;;;5042024;28;20540;-84
2023/11/26 12:37:03;;;;;;;6.63;1.60;;;8.60;99.90;;;;;;5043012;28;20029;-83
2023/11/26 12:39:30;;;;;;;5.37;1.27;;;8.60;99.90;;;;;;5023072;28;20036;-83
2023/11/26 12:41:56;;;;;;;6.70;1.47;;;8.50;99.90;;;;;;5023693;28;20093;-82
2023/11/26 12:44:23;;;;;;;7.30;2.10;;;8.50;99.90;;;;;;5024118;28;20079;-84
2023/11/26 12:46:50;;;;;;;4.73;1.53;;;8.50;99.90;;;;;;5024696;28;20113;-84
2023/11/26 12:49:17;;;;;;;7.57;1.50;;;8.50;99.90;;;;;;5024243;28;20030;-84
2023/11/26 12:51:44;;;;;;;7.07;1.40;;;8.50;99.90;;;;;;5041332;28;20021;-84
2023/11/26 12:54:10;;;;;;;7.17;1.90;;;8.50;99.90;;;;;;5024596;28;20109;-85
2023/11/26 12:56:37;;;;;;;7.53;1.53;;;8.50;99.90;;;;;;5042175;28;20036;-84
2023/11/26 12:59:03;;;;;;;10.20;2.17;;;8.40;99.90;;;;;;5024832;28;20026;-84